sensor_id;sensor_type;location;lat;lon;timestamp;pressure;altitude;pressure_sealevel;temperature;humidity
42847;BME280;28495;49.916;14.536;2023-05-27T00:02:22;97778.16;;;13.36;49.47
42847;BME280;28495;49.916;14.536;2023-05-27T00:07:44;97768.38;;;13.38;49.51
42847;BME280;28495;49.916;14.536;2023-05-27T00:13:05;97764.50;;;13.32;49.30
42847;BME280;28495;49.916;14.536;2023-05-27T00:18:26;97759.09;;;13.34;49.40
42847;BME280;28495;49.916;14.536;2023-05-27T00:23:47;97759.81;;;13.36;49.37
42847;BME280;28495;49.916;14.536;2023-05-27T00:29:08;97759.50;;;13.29;49.28
42847;BME280;28495;49.916;14.536;2023-05-27T00:34:32;97761.88;;;13.32;49.21
42847;BME280;28495;49.916;14.536;2023-05-27T00:39:55;97758.16;;;13.35;49.38
42847;BME280;28495;49.916;14.536;2023-05-27T00:45:16;97760.38;;;13.39;49.56
42847;BME280;28495;49.916;14.536;2023-05-27T00:50:36;97757.44;;;13.33;49.50
42847;BME280;28495;49.916;14.536;2023-05-27T00:55:59;97758.34;;;13.43;49.62
42847;BME280;28495;49.916;14.536;2023-05-27T01:01:22;97760.44;;;13.49;49.59
42847;BME280;28495;49.916;14.536;2023-05-27T01:18:18;97745.38;;;13.10;49.28
42847;BME280;28495;49.916;14.536;2023-05-27T01:23:43;97748.94;;;13.00;49.44
42847;BME280;28495;49.916;14.536;2023-05-27T01:29:07;97750.41;;;12.92;49.62
42847;BME280;28495;49.916;14.536;2023-05-27T01:34:36;97746.41;;;12.88;49.76
42847;BME280;28495;49.916;14.536;2023-05-27T01:39:58;97752.09;;;12.72;49.65
42847;BME280;28495;49.916;14.536;2023-05-27T01:45:22;97754.53;;;12.64;49.63
42847;BME280;28495;49.916;14.536;2023-05-27T01:50:43;97749.38;;;12.53;49.88
42847;BME280;28495;49.916;14.536;2023-05-27T01:56:05;97748.88;;;12.59;50.20
42847;BME280;28495;49.916;14.536;2023-05-27T02:01:26;97744.59;;;12.58;50.01
42847;BME280;28495;49.916;14.536;2023-05-27T02:06:49;97748.03;;;12.58;50.00
42847;BME280;28495;49.916;14.536;2023-05-27T02:12:10;97750.78;;;12.57;49.94
42847;BME280;28495;49.916;14.536;2023-05-27T02:17:32;97745.31;;;12.39;49.84
42847;BME280;28495;49.916;14.536;2023-05-27T02:22:53;97741.28;;;12.34;50.01
42847;BME280;28495;49.916;14.536;2023-05-27T02:28:15;97752.13;;;12.30;49.85
42847;BME280;28495;49.916;14.536;2023-05-27T02:33:36;97749.06;;;12.25;50.03
42847;BME280;28495;49.916;14.536;2023-05-27T02:38:57;97744.69;;;12.14;50.11
42847;BME280;28495;49.916;14.536;2023-05-27T02:44:17;97749.16;;;12.02;50.00
42847;BME280;28495;49.916;14.536;2023-05-27T02:49:38;97753.91;;;11.97;50.35
42847;BME280;28495;49.916;14.536;2023-05-27T02:54:59;97753.00;;;11.86;50.22
42847;BME280;28495;49.916;14.536;2023-05-27T03:00:22;97757.63;;;11.83;50.39
42847;BME280;28495;49.916;14.536;2023-05-27T03:05:43;97753.09;;;11.85;50.56
42847;BME280;28495;49.916;14.536;2023-05-27T03:11:04;97762.41;;;11.78;50.42
42847;BME280;28495;49.916;14.536;2023-05-27T03:16:25;97750.16;;;11.78;50.58
42847;BME280;28495;49.916;14.536;2023-05-27T03:21:46;97750.66;;;11.72;50.50
42847;BME280;28495;49.916;14.536;2023-05-27T03:27:07;97755.41;;;11.67;50.69
42847;BME280;28495;49.916;14.536;2023-05-27T03:32:31;97754.94;;;11.62;50.85
42847;BME280;28495;49.916;14.536;2023-05-27T03:37:52;97757.19;;;11.66;50.93
42847;BME280;28495;49.916;14.536;2023-05-27T03:43:13;97762.91;;;11.60;51.03
42847;BME280;28495;49.916;14.536;2023-05-27T03:48:33;97777.75;;;11.59;50.87
42847;BME280;28495;49.916;14.536;2023-05-27T03:53:54;97768.38;;;11.57;50.91
42847;BME280;28495;49.916;14.536;2023-05-27T03:59:15;97771.69;;;11.70;51.40
42847;BME280;28495;49.916;14.536;2023-05-27T04:04:38;97779.56;;;11.92;51.61
42847;BME280;28495;49.916;14.536;2023-05-27T04:09:59;97780.25;;;12.16;51.52
42847;BME280;28495;49.916;14.536;2023-05-27T04:15:21;97778.59;;;12.58;51.49
42847;BME280;28495;49.916;14.536;2023-05-27T04:20:41;97787.00;;;12.83;51.30
42847;BME280;28495;49.916;14.536;2023-05-27T04:26:05;97782.00;;;13.32;51.66
42847;BME280;28495;49.916;14.536;2023-05-27T04:31:30;97789.38;;;13.98;51.44
42847;BME280;28495;49.916;14.536;2023-05-27T04:36:58;97789.09;;;14.31;50.97
42847;BME280;28495;49.916;14.536;2023-05-27T04:42:21;97783.84;;;14.51;50.16
42847;BME280;28495;49.916;14.536;2023-05-27T04:47:44;97781.19;;;14.80;50.08
42847;BME280;28495;49.916;14.536;2023-05-27T04:53:07;97779.31;;;15.00;49.49
42847;BME280;28495;49.916;14.536;2023-05-27T04:58:28;97778.59;;;15.08;49.24
42847;BME280;28495;49.916;14.536;2023-05-27T05:03:51;97787.06;;;15.39;49.31
42847;BME280;28495;49.916;14.536;2023-05-27T05:09:44;97783.53;;;15.49;48.94
42847;BME280;28495;49.916;14.536;2023-05-27T05:15:12;97781.72;;;15.77;48.99
42847;BME280;28495;49.916;14.536;2023-05-27T05:20:33;97772.00;;;16.06;48.75
42847;BME280;28495;49.916;14.536;2023-05-27T05:25:55;97778.84;;;16.17;48.12
42847;BME280;28495;49.916;14.536;2023-05-27T05:31:19;97780.84;;;16.41;48.27
42847;BME280;28495;49.916;14.536;2023-05-27T05:36:41;97780.44;;;16.27;48.10
42847;BME280;28495;49.916;14.536;2023-05-27T05:42:03;97779.97;;;16.32;47.87
42847;BME280;28495;49.916;14.536;2023-05-27T05:47:25;97784.75;;;16.55;47.96
42847;BME280;28495;49.916;14.536;2023-05-27T05:52:57;97776.03;;;16.81;47.44
42847;BME280;28495;49.916;14.536;2023-05-27T05:58:18;97790.13;;;16.71;47.66
42847;BME280;28495;49.916;14.536;2023-05-27T06:03:42;97786.63;;;16.63;47.04
42847;BME280;28495;49.916;14.536;2023-05-27T06:09:13;97800.56;;;16.55;47.35
42847;BME280;28495;49.916;14.536;2023-05-27T06:14:34;97811.75;;;16.57;47.36
42847;BME280;28495;49.916;14.536;2023-05-27T06:19:56;97808.34;;;16.83;47.98
42847;BME280;28495;49.916;14.536;2023-05-27T06:25:17;97815.69;;;16.53;46.97
42847;BME280;28495;49.916;14.536;2023-05-27T06:30:47;97816.94;;;16.67;47.98
42847;BME280;28495;49.916;14.536;2023-05-27T06:36:10;97800.34;;;16.92;48.00
42847;BME280;28495;49.916;14.536;2023-05-27T06:41:34;97800.59;;;17.08;47.55
42847;BME280;28495;49.916;14.536;2023-05-27T06:47:13;97811.00;;;16.91;47.80
42847;BME280;28495;49.916;14.536;2023-05-27T06:52:35;97801.00;;;16.95;47.57
42847;BME280;28495;49.916;14.536;2023-05-27T06:58:06;97797.75;;;17.01;48.05
42847;BME280;28495;49.916;14.536;2023-05-27T07:03:39;97804.22;;;17.41;47.93
42847;BME280;28495;49.916;14.536;2023-05-27T07:09:01;97807.78;;;17.66;47.33
42847;BME280;28495;49.916;14.536;2023-05-27T07:14:26;97787.28;;;18.03;47.46
42847;BME280;28495;49.916;14.536;2023-05-27T07:19:48;97790.44;;;18.15;46.59
42847;BME280;28495;49.916;14.536;2023-05-27T07:25:12;97794.25;;;18.21;46.60
42847;BME280;28495;49.916;14.536;2023-05-27T07:30:34;97789.97;;;18.28;46.58
42847;BME280;28495;49.916;14.536;2023-05-27T07:35:59;97793.59;;;18.27;46.31
42847;BME280;28495;49.916;14.536;2023-05-27T07:41:19;97792.75;;;18.02;45.76
42847;BME280;28495;49.916;14.536;2023-05-27T07:46:42;97795.69;;;17.98;46.31
42847;BME280;28495;49.916;14.536;2023-05-27T07:52:03;97781.84;;;18.13;46.37
42847;BME280;28495;49.916;14.536;2023-05-27T07:57:24;97778.91;;;18.16;45.89
42847;BME280;28495;49.916;14.536;2023-05-27T08:02:46;97773.22;;;17.94;45.80
42847;BME280;28495;49.916;14.536;2023-05-27T08:08:08;97792.50;;;17.87;45.78
42847;BME280;28495;49.916;14.536;2023-05-27T08:13:49;97775.84;;;17.94;45.94
42847;BME280;28495;49.916;14.536;2023-05-27T08:19:29;97777.66;;;17.86;45.96
42847;BME280;28495;49.916;14.536;2023-05-27T08:25:03;97771.56;;;17.85;45.49
42847;BME280;28495;49.916;14.536;2023-05-27T08:30:37;97769.69;;;17.61;45.63
42847;BME280;28495;49.916;14.536;2023-05-27T08:36:02;97764.91;;;17.56;45.79
42847;BME280;28495;49.916;14.536;2023-05-27T08:41:24;97758.16;;;17.62;45.60
42847;BME280;28495;49.916;14.536;2023-05-27T08:46:49;97750.94;;;17.80;46.19
42847;BME280;28495;49.916;14.536;2023-05-27T08:52:12;97746.66;;;17.88;45.35
42847;BME280;28495;49.916;14.536;2023-05-27T08:57:36;97745.31;;;17.75;45.57
42847;BME280;28495;49.916;14.536;2023-05-27T09:02:58;97746.34;;;17.82;45.72
42847;BME280;28495;49.916;14.536;2023-05-27T09:08:25;97739.88;;;17.68;45.54
42847;BME280;28495;49.916;14.536;2023-05-27T09:14:03;97737.06;;;17.70;45.14
42847;BME280;28495;49.916;14.536;2023-05-27T09:19:24;97743.00;;;17.64;45.52
42847;BME280;28495;49.916;14.536;2023-05-27T09:24:45;97734.59;;;17.60;45.09
42847;BME280;28495;49.916;14.536;2023-05-27T09:30:07;97724.22;;;17.75;45.18
42847;BME280;28495;49.916;14.536;2023-05-27T09:35:29;97729.69;;;17.90;45.82
42847;BME280;28495;49.916;14.536;2023-05-27T09:40:50;97723.41;;;17.83;45.42
42847;BME280;28495;49.916;14.536;2023-05-27T09:46:14;97721.59;;;17.83;45.71
42847;BME280;28495;49.916;14.536;2023-05-27T09:51:37;97712.03;;;17.91;45.55
42847;BME280;28495;49.916;14.536;2023-05-27T09:56:59;97711.69;;;17.77;45.46
42847;BME280;28495;49.916;14.536;2023-05-27T10:02:21;97711.72;;;17.94;45.77
42847;BME280;28495;49.916;14.536;2023-05-27T10:07:44;97705.75;;;17.92;45.54
42847;BME280;28495;49.916;14.536;2023-05-27T10:13:27;97699.66;;;17.83;45.64
42847;BME280;28495;49.916;14.536;2023-05-27T10:18:53;97690.75;;;17.92;45.80
42847;BME280;28495;49.916;14.536;2023-05-27T10:24:14;97694.09;;;18.19;45.71
42847;BME280;28495;49.916;14.536;2023-05-27T10:29:36;97683.69;;;18.18;45.59
42847;BME280;28495;49.916;14.536;2023-05-27T10:34:58;97677.91;;;18.31;45.78
42847;BME280;28495;49.916;14.536;2023-05-27T10:40:26;97685.69;;;18.07;45.65
42847;BME280;28495;49.916;14.536;2023-05-27T10:45:47;97673.13;;;18.01;45.89
42847;BME280;28495;49.916;14.536;2023-05-27T10:51:08;97667.03;;;18.09;45.49
42847;BME280;28495;49.916;14.536;2023-05-27T10:56:29;97664.22;;;18.02;45.70
42847;BME280;28495;49.916;14.536;2023-05-27T11:01:52;97663.56;;;18.00;45.62
42847;BME280;28495;49.916;14.536;2023-05-27T11:07:20;97661.09;;;17.98;45.57
42847;BME280;28495;49.916;14.536;2023-05-27T11:12:43;97653.19;;;18.15;46.40
42847;BME280;28495;49.916;14.536;2023-05-27T11:18:05;97652.34;;;18.23;46.21
42847;BME280;28495;49.916;14.536;2023-05-27T11:23:34;97651.34;;;18.16;45.68
42847;BME280;28495;49.916;14.536;2023-05-27T11:28:58;97647.91;;;18.07;46.26
42847;BME280;28495;49.916;14.536;2023-05-27T11:34:19;97630.38;;;18.31;46.40
42847;BME280;28495;49.916;14.536;2023-05-27T11:39:51;97617.81;;;18.41;46.23
42847;BME280;28495;49.916;14.536;2023-05-27T11:45:20;97613.31;;;18.58;46.37
42847;BME280;28495;49.916;14.536;2023-05-27T11:50:42;97617.47;;;18.52;45.53
42847;BME280;28495;49.916;14.536;2023-05-27T11:56:03;97615.13;;;18.57;45.57
42847;BME280;28495;49.916;14.536;2023-05-27T12:01:25;97602.56;;;18.59;45.60
42847;BME280;28495;49.916;14.536;2023-05-27T12:06:47;97610.50;;;18.59;45.32
42847;BME280;28495;49.916;14.536;2023-05-27T12:12:08;97616.38;;;18.70;45.44
42847;BME280;28495;49.916;14.536;2023-05-27T12:17:29;97614.53;;;18.79;45.40
42847;BME280;28495;49.916;14.536;2023-05-27T12:22:50;97615.50;;;18.86;45.30
42847;BME280;28495;49.916;14.536;2023-05-27T12:28:11;97604.59;;;18.89;45.01
42847;BME280;28495;49.916;14.536;2023-05-27T12:33:32;97597.66;;;18.96;45.01
42847;BME280;28495;49.916;14.536;2023-05-27T12:38:53;97594.06;;;18.81;44.30
42847;BME280;28495;49.916;14.536;2023-05-27T12:44:15;97584.19;;;18.74;44.47
42847;BME280;28495;49.916;14.536;2023-05-27T12:49:36;97577.69;;;18.85;45.02
42847;BME280;28495;49.916;14.536;2023-05-27T12:54:57;97580.63;;;18.91;44.76
42847;BME280;28495;49.916;14.536;2023-05-27T13:00:19;97579.13;;;18.96;44.77
42847;BME280;28495;49.916;14.536;2023-05-27T13:05:42;97564.84;;;19.14;45.03
42847;BME280;28495;49.916;14.536;2023-05-27T13:11:03;97554.19;;;19.22;44.46
42847;BME280;28495;49.916;14.536;2023-05-27T13:16:24;97553.81;;;19.02;43.84
42847;BME280;28495;49.916;14.536;2023-05-27T13:21:45;97549.19;;;19.04;43.92
42847;BME280;28495;49.916;14.536;2023-05-27T13:27:06;97551.22;;;18.94;44.01
42847;BME280;28495;49.916;14.536;2023-05-27T13:32:27;97547.72;;;18.93;44.02
42847;BME280;28495;49.916;14.536;2023-05-27T13:37:48;97539.34;;;18.89;44.10
42847;BME280;28495;49.916;14.536;2023-05-27T13:43:10;97536.22;;;18.86;44.12
42847;BME280;28495;49.916;14.536;2023-05-27T13:48:31;97530.16;;;19.09;44.28
42847;BME280;28495;49.916;14.536;2023-05-27T13:53:52;97520.97;;;19.04;43.67
42847;BME280;28495;49.916;14.536;2023-05-27T13:59:14;97532.06;;;18.92;43.71
42847;BME280;28495;49.916;14.536;2023-05-27T14:04:35;97524.59;;;19.03;43.90
42847;BME280;28495;49.916;14.536;2023-05-27T14:09:56;97518.06;;;19.14;44.01
42847;BME280;28495;49.916;14.536;2023-05-27T14:15:17;97511.41;;;19.18;43.43
42847;BME280;28495;49.916;14.536;2023-05-27T14:20:38;97505.09;;;19.28;43.93
42847;BME280;28495;49.916;14.536;2023-05-27T14:26:00;97503.78;;;19.24;43.43
42847;BME280;28495;49.916;14.536;2023-05-27T14:31:21;97496.50;;;19.02;42.88
42847;BME280;28495;49.916;14.536;2023-05-27T14:36:41;97495.41;;;18.97;43.48
42847;BME280;28495;49.916;14.536;2023-05-27T14:42:02;97490.56;;;19.00;43.24
42847;BME280;28495;49.916;14.536;2023-05-27T14:47:23;97493.56;;;18.97;42.92
42847;BME280;28495;49.916;14.536;2023-05-27T14:52:44;97484.00;;;18.96;43.15
42847;BME280;28495;49.916;14.536;2023-05-27T14:58:06;97482.38;;;18.87;43.21
42847;BME280;28495;49.916;14.536;2023-05-27T15:03:27;97479.84;;;18.94;42.93
42847;BME280;28495;49.916;14.536;2023-05-27T15:08:50;97477.75;;;18.89;42.96
42847;BME280;28495;49.916;14.536;2023-05-27T15:14:11;97473.50;;;18.80;43.07
42847;BME280;28495;49.916;14.536;2023-05-27T15:19:32;97468.56;;;18.77;43.13
42847;BME280;28495;49.916;14.536;2023-05-27T15:24:52;97465.22;;;18.83;43.25
42847;BME280;28495;49.916;14.536;2023-05-27T15:30:13;97464.53;;;18.89;43.01
42847;BME280;28495;49.916;14.536;2023-05-27T15:35:34;97463.38;;;18.83;42.78
42847;BME280;28495;49.916;14.536;2023-05-27T15:40:55;97461.81;;;18.74;42.79
42847;BME280;28495;49.916;14.536;2023-05-27T15:46:16;97461.00;;;18.73;42.79
42847;BME280;28495;49.916;14.536;2023-05-27T15:51:38;97454.41;;;18.69;42.39
42847;BME280;28495;49.916;14.536;2023-05-27T15:56:59;97447.19;;;18.63;42.83
42847;BME280;28495;49.916;14.536;2023-05-27T16:02:20;97438.78;;;18.59;43.43
42847;BME280;28495;49.916;14.536;2023-05-27T16:07:41;97434.81;;;18.64;43.64
42847;BME280;28495;49.916;14.536;2023-05-27T16:13:04;97420.09;;;18.61;43.37
42847;BME280;28495;49.916;14.536;2023-05-27T16:18:24;97418.50;;;18.60;43.01
42847;BME280;28495;49.916;14.536;2023-05-27T16:23:45;97417.31;;;18.63;43.25
42847;BME280;28495;49.916;14.536;2023-05-27T16:29:19;97414.13;;;18.67;42.98
42847;BME280;28495;49.916;14.536;2023-05-27T16:34:40;97426.03;;;18.63;43.30
42847;BME280;28495;49.916;14.536;2023-05-27T16:40:01;97412.03;;;18.63;43.28
42847;BME280;28495;49.916;14.536;2023-05-27T16:45:21;97412.19;;;18.61;43.72
42847;BME280;28495;49.916;14.536;2023-05-27T16:50:42;97400.28;;;18.65;43.54
42847;BME280;28495;49.916;14.536;2023-05-27T16:56:03;97389.91;;;18.64;43.25
42847;BME280;28495;49.916;14.536;2023-05-27T17:01:24;97394.34;;;18.63;43.39
42847;BME280;28495;49.916;14.536;2023-05-27T17:06:44;97388.59;;;18.59;43.47
42847;BME280;28495;49.916;14.536;2023-05-27T17:12:07;97387.25;;;18.64;43.67
42847;BME280;28495;49.916;14.536;2023-05-27T17:17:30;97385.97;;;18.59;43.87
42847;BME280;28495;49.916;14.536;2023-05-27T17:22:50;97392.97;;;18.52;43.96
42847;BME280;28495;49.916;14.536;2023-05-27T17:28:11;97392.78;;;18.54;44.43
42847;BME280;28495;49.916;14.536;2023-05-27T17:33:32;97388.03;;;18.49;44.78
42847;BME280;28495;49.916;14.536;2023-05-27T17:38:53;97389.88;;;18.40;44.45
42847;BME280;28495;49.916;14.536;2023-05-27T17:44:14;97385.47;;;18.33;44.97
42847;BME280;28495;49.916;14.536;2023-05-27T17:49:35;97378.59;;;18.23;45.05
42847;BME280;28495;49.916;14.536;2023-05-27T17:54:56;97385.38;;;18.18;45.43
42847;BME280;28495;49.916;14.536;2023-05-27T18:00:17;97384.44;;;18.10;45.75
42847;BME280;28495;49.916;14.536;2023-05-27T18:05:38;97374.69;;;18.11;45.85
42847;BME280;28495;49.916;14.536;2023-05-27T18:10:59;97372.75;;;17.96;45.88
42847;BME280;28495;49.916;14.536;2023-05-27T18:16:22;97379.25;;;17.86;46.03
42847;BME280;28495;49.916;14.536;2023-05-27T18:21:44;97372.03;;;17.71;46.27
42847;BME280;28495;49.916;14.536;2023-05-27T18:27:05;97375.19;;;17.66;46.42
42847;BME280;28495;49.916;14.536;2023-05-27T18:32:26;97381.78;;;17.62;46.43
42847;BME280;28495;49.916;14.536;2023-05-27T18:37:47;97371.47;;;17.44;46.50
42847;BME280;28495;49.916;14.536;2023-05-27T18:43:08;97372.34;;;17.28;46.81
42847;BME280;28495;49.916;14.536;2023-05-27T18:48:29;97379.13;;;17.06;46.79
42847;BME280;28495;49.916;14.536;2023-05-27T18:53:51;97385.38;;;16.88;47.19
42847;BME280;28495;49.916;14.536;2023-05-27T18:59:12;97383.72;;;16.87;47.44
42847;BME280;28495;49.916;14.536;2023-05-27T19:04:33;97386.03;;;16.90;47.59
42847;BME280;28495;49.916;14.536;2023-05-27T19:09:54;97373.84;;;16.81;47.68
42847;BME280;28495;49.916;14.536;2023-05-27T19:15:14;97383.56;;;16.81;47.75
42847;BME280;28495;49.916;14.536;2023-05-27T19:20:36;97388.34;;;16.77;47.62
42847;BME280;28495;49.916;14.536;2023-05-27T19:25:57;97390.78;;;16.54;47.29
42847;BME280;28495;49.916;14.536;2023-05-27T19:31:18;97388.75;;;16.31;47.63
42847;BME280;28495;49.916;14.536;2023-05-27T19:36:39;97387.13;;;16.30;47.95
42847;BME280;28495;49.916;14.536;2023-05-27T19:41:59;97391.75;;;16.36;47.96
42847;BME280;28495;49.916;14.536;2023-05-27T19:47:20;97390.59;;;16.30;47.94
42847;BME280;28495;49.916;14.536;2023-05-27T19:52:41;97393.53;;;16.27;47.77
42847;BME280;28495;49.916;14.536;2023-05-27T19:58:02;97396.13;;;16.19;47.77
42847;BME280;28495;49.916;14.536;2023-05-27T20:03:23;97393.13;;;16.06;47.61
42847;BME280;28495;49.916;14.536;2023-05-27T20:08:44;97384.78;;;16.19;48.09
42847;BME280;28495;49.916;14.536;2023-05-27T20:14:05;97387.91;;;16.14;47.99
42847;BME280;28495;49.916;14.536;2023-05-27T20:19:26;97394.09;;;15.96;47.80
42847;BME280;28495;49.916;14.536;2023-05-27T20:24:47;97392.44;;;15.87;47.85
42847;BME280;28495;49.916;14.536;2023-05-27T20:30:08;97393.91;;;15.90;48.01
42847;BME280;28495;49.916;14.536;2023-05-27T20:35:29;97398.94;;;15.83;47.78
42847;BME280;28495;49.916;14.536;2023-05-27T20:40:50;97395.81;;;15.79;48.15
42847;BME280;28495;49.916;14.536;2023-05-27T20:46:11;97400.53;;;15.76;48.20
42847;BME280;28495;49.916;14.536;2023-05-27T20:51:32;97398.16;;;15.56;47.99
42847;BME280;28495;49.916;14.536;2023-05-27T20:56:55;97408.22;;;15.61;48.10
42847;BME280;28495;49.916;14.536;2023-05-27T21:02:15;97401.03;;;15.45;48.14
42847;BME280;28495;49.916;14.536;2023-05-27T21:07:37;97402.16;;;15.34;48.17
42847;BME280;28495;49.916;14.536;2023-05-27T21:12:58;97396.69;;;15.27;48.30
42847;BME280;28495;49.916;14.536;2023-05-27T21:18:19;97396.47;;;15.20;48.26
42847;BME280;28495;49.916;14.536;2023-05-27T21:23:41;97396.47;;;15.20;48.65
42847;BME280;28495;49.916;14.536;2023-05-27T21:29:02;97406.13;;;15.12;48.43
42847;BME280;28495;49.916;14.536;2023-05-27T21:34:30;97401.91;;;15.01;48.55
42847;BME280;28495;49.916;14.536;2023-05-27T21:39:51;97383.44;;;15.11;48.61
42847;BME280;28495;49.916;14.536;2023-05-27T21:45:11;97395.75;;;15.10;48.82
42847;BME280;28495;49.916;14.536;2023-05-27T21:50:32;97393.41;;;15.07;48.75
42847;BME280;28495;49.916;14.536;2023-05-27T21:55:54;97386.47;;;14.98;48.60
42847;BME280;28495;49.916;14.536;2023-05-27T22:01:15;97380.63;;;14.86;48.53
42847;BME280;28495;49.916;14.536;2023-05-27T22:06:39;97381.38;;;14.78;48.59
42847;BME280;28495;49.916;14.536;2023-05-27T22:12:01;97374.81;;;14.74;48.56
42847;BME280;28495;49.916;14.536;2023-05-27T22:17:22;97371.09;;;14.67;48.41
42847;BME280;28495;49.916;14.536;2023-05-27T22:22:43;97369.72;;;14.62;48.21
42847;BME280;28495;49.916;14.536;2023-05-27T22:28:04;97369.38;;;14.57;48.30
42847;BME280;28495;49.916;14.536;2023-05-27T22:33:25;97355.66;;;14.45;48.11
42847;BME280;28495;49.916;14.536;2023-05-27T22:38:49;97349.88;;;14.42;48.27
42847;BME280;28495;49.916;14.536;2023-05-27T22:44:10;97347.84;;;14.36;48.13
42847;BME280;28495;49.916;14.536;2023-05-27T22:49:31;97339.81;;;14.37;47.98
42847;BME280;28495;49.916;14.536;2023-05-27T22:54:52;97328.28;;;14.30;48.30
42847;BME280;28495;49.916;14.536;2023-05-27T23:00:13;97327.91;;;14.25;48.50
42847;BME280;28495;49.916;14.536;2023-05-27T23:05:34;97332.03;;;14.09;48.36
42847;BME280;28495;49.916;14.536;2023-05-27T23:10:55;97337.13;;;14.11;48.59
42847;BME280;28495;49.916;14.536;2023-05-27T23:16:16;97325.13;;;14.08;48.48
42847;BME280;28495;49.916;14.536;2023-05-27T23:21:40;97322.13;;;14.03;48.57
42847;BME280;28495;49.916;14.536;2023-05-27T23:27:01;97321.91;;;13.96;48.49
42847;BME280;28495;49.916;14.536;2023-05-27T23:32:22;97308.56;;;13.90;48.78
42847;BME280;28495;49.916;14.536;2023-05-27T23:37:43;97306.81;;;13.80;48.64
42847;BME280;28495;49.916;14.536;2023-05-27T23:43:04;97303.66;;;13.77;48.82
42847;BME280;28495;49.916;14.536;2023-05-27T23:48:24;97298.34;;;13.68;48.56
42847;BME280;28495;49.916;14.536;2023-05-27T23:53:47;97300.69;;;13.62;49.06
42847;BME280;28495;49.916;14.536;2023-05-27T23:59:07;97294.50;;;13.63;48.82
